Terminal Aerodrome Forecast
Issued by NWS

Home | Current Version | Previous Version | Text Only | Print | Product List | Glossary On
Versions: 1 2 3 4 5 6 7 8 9 10 11 12 13
000
FTUS41 KRNK 271120
TAFLWB
TAF
KLWB 271120Z 2712/2812 00000KT P6SM SCT008 BKN050
      TEMPO 2712/2713 4SM BR OVC008
     FM271500 24005KT P6SM BKN015
     FM271800 24007KT P6SM BKN045
     FM272000 24007KT P6SM VCSH BKN050
     FM280000 00000KT P6SM BKN090
     FM281100 VRB03KT P6SM BKN025=

USA.gov is the U.S. government's official web portal to all federal, state and local government web resources and services.